Time,TemperatureF,DewpointF,PressureIn,WindDirection,WindDirectionDegrees,WindSpeedMPH,WindSpeedGustMPH,Humidity,HourlyPrecipIn,Conditions,Clouds,dailyrainin,SoftwareType,DateUTC
2013-12-06 00:01:00,27.3,22.2,30.20,NW,307,10.0,13.0,81,0.00,,---,0.00,VWS V14.01,2013-12-06 05:01:00,
2013-12-06 00:31:00,27.3,22.5,30.22,WNW,298,7.0,12.0,82,0.00,,---,0.00,VWS V14.01,2013-12-06 05:31:00,
2013-12-06 01:01:00,27.3,22.2,30.20,NNW,341,8.0,13.0,81,0.00,,---,0.00,VWS V14.01,2013-12-06 06:01:00,
2013-12-06 01:31:00,27.1,22.1,30.18,NW,307,7.0,12.0,81,0.00,,---,0.00,VWS V14.01,2013-12-06 06:31:00,
2013-12-06 02:01:00,27.1,22.4,30.20,NNW,327,6.0,12.0,82,0.00,,---,0.00,VWS V14.01,2013-12-06 07:01:00,
2013-12-06 02:31:00,26.7,21.4,30.21,WNW,285,5.0,10.0,80,0.00,,---,0.00,VWS V14.01,2013-12-06 07:31:00,
2013-12-06 03:01:00,27.0,22.5,30.22,WNW,295,6.0,9.0,83,0.00,,---,0.00,VWS V14.01,2013-12-06 08:01:00,
2013-12-06 03:31:00,27.0,22.5,30.22,WNW,295,4.0,9.0,83,0.00,,---,0.00,VWS V14.01,2013-12-06 08:31:00,
2013-12-06 04:01:00,27.2,22.7,30.25,West,276,6.0,9.0,83,0.00,,---,0.00,VWS V14.01,2013-12-06 09:01:00,
2013-12-06 04:31:00,27.2,22.7,30.23,WNW,287,4.0,7.0,83,0.00,,---,0.00,VWS V14.01,2013-12-06 09:31:00,
2013-12-06 05:01:00,27.3,22.8,30.24,WNW,283,4.0,7.0,83,0.00,,---,0.00,VWS V14.01,2013-12-06 10:01:00,
2013-12-06 05:31:00,27.9,23.7,30.24,North,359,8.0,8.0,84,0.00,,---,0.00,VWS V14.01,2013-12-06 10:31:00,
2013-12-06 06:01:00,28.1,23.6,30.24,NNW,345,8.0,9.0,83,0.00,,---,0.00,VWS V14.01,2013-12-06 11:01:00,
2013-12-06 06:31:00,27.9,23.4,30.24,NW,325,11.0,12.0,83,0.00,,---,0.00,VWS V14.01,2013-12-06 11:31:00,
2013-12-06 07:01:00,27.9,23.4,30.27,NW,319,7.0,14.0,83,0.00,,---,0.00,VWS V14.01,2013-12-06 12:01:00,
2013-12-06 07:31:00,28.0,23.5,30.27,NNW,329,6.0,13.0,83,0.00,,---,0.00,VWS V14.01,2013-12-06 12:31:00,
2013-12-06 08:01:00,28.0,23.8,30.28,NNW,332,9.0,12.0,84,0.00,,---,0.00,VWS V14.01,2013-12-06 13:01:00,
2013-12-06 08:31:00,27.9,24.0,30.29,NW,321,8.0,12.0,85,0.00,,---,0.00,VWS V14.01,2013-12-06 13:31:00,
2013-12-06 09:01:00,27.5,23.0,30.28,North,360,6.0,12.0,83,0.00,,---,0.00,VWS V14.01,2013-12-06 14:01:00,
2013-12-06 09:31:00,27.5,22.7,30.28,NNW,335,6.0,10.0,82,0.00,,---,0.00,VWS V14.01,2013-12-06 14:31:00,
2013-12-06 10:01:00,28.2,24.0,30.32,NW,325,9.0,12.0,84,0.00,,---,0.00,VWS V14.01,2013-12-06 15:01:00,
2013-12-06 10:31:00,28.0,22.9,30.32,NNW,343,6.0,10.0,81,0.00,,---,0.00,VWS V14.01,2013-12-06 15:31:00,
2013-12-06 11:01:00,28.0,22.3,30.33,North,356,9.0,10.0,79,0.00,,---,0.00,VWS V14.01,2013-12-06 16:01:00,
2013-12-06 11:31:00,28.3,22.6,30.32,NNE,20,5.0,13.0,79,0.00,,---,0.00,VWS V14.01,2013-12-06 16:31:00,
2013-12-06 12:01:00,28.2,23.4,30.32,NNW,328,9.0,10.0,82,0.00,,---,0.00,VWS V14.01,2013-12-06 17:01:00,
2013-12-06 12:31:00,28.2,23.4,30.31,NNW,333,7.0,13.0,82,0.00,,---,0.00,VWS V14.01,2013-12-06 17:31:00,
2013-12-06 13:01:00,28.2,23.1,30.29,NW,317,10.0,15.0,81,0.00,,---,0.00,VWS V14.01,2013-12-06 18:01:00,
2013-12-06 13:31:00,27.8,21.5,30.30,NNW,347,5.0,14.0,77,0.00,,---,0.00,VWS V14.01,2013-12-06 18:31:00,
2013-12-06 14:01:00,27.5,21.5,30.29,NNW,330,8.0,12.0,78,0.00,,---,0.00,VWS V14.01,2013-12-06 19:01:00,
2013-12-06 14:31:00,27.5,22.1,30.30,NW,318,12.0,12.0,80,0.00,,---,0.00,VWS V14.01,2013-12-06 19:31:00,
2013-12-06 15:01:00,27.4,21.1,30.31,North,350,5.0,12.0,77,0.00,,---,0.00,VWS V14.01,2013-12-06 20:01:00,
2013-12-06 15:31:00,27.1,20.9,30.30,NE,34,5.0,10.0,77,0.00,,---,0.00,VWS V14.01,2013-12-06 20:31:00,
2013-12-06 16:01:00,26.8,20.9,30.31,North,352,4.0,13.0,78,0.00,,---,0.00,VWS V14.01,2013-12-06 21:01:00,
2013-12-06 16:31:00,26.7,20.5,30.33,NNW,340,7.0,13.0,77,0.00,,---,0.00,VWS V14.01,2013-12-06 21:31:00,
2013-12-06 17:01:00,26.1,20.2,30.31,NNE,18,2.0,10.0,78,0.00,,---,0.00,VWS V14.01,2013-12-06 22:01:00,
2013-12-06 17:31:00,25.8,19.9,30.33,North,359,6.0,11.0,78,0.00,,---,0.00,VWS V14.01,2013-12-06 22:31:00,
2013-12-06 18:01:00,26.1,20.5,30.34,NNW,346,5.0,12.0,79,0.00,,---,0.00,VWS V14.01,2013-12-06 23:01:00,
2013-12-06 18:31:00,26.1,20.5,30.35,NW,305,9.0,12.0,79,0.00,,---,0.00,VWS V14.01,2013-12-06 23:31:00,
2013-12-06 19:01:00,26.0,19.8,30.38,NNW,347,6.0,11.0,77,0.00,,---,0.00,VWS V14.01,2013-12-07 00:01:00,
2013-12-06 19:31:00,25.8,20.2,30.37,North,350,5.0,11.0,79,0.00,,---,0.00,VWS V14.01,2013-12-07 00:31:00,
2013-12-06 20:01:00,25.7,20.1,30.37,NW,311,9.0,11.0,79,0.00,,---,0.00,VWS V14.01,2013-12-07 01:01:00,
2013-12-06 20:31:00,25.6,20.3,30.38,NNW,329,7.0,13.0,80,0.00,,---,0.00,VWS V14.01,2013-12-07 01:31:00,
2013-12-06 21:01:00,25.1,18.9,30.40,North,358,10.0,12.0,77,0.00,,---,0.00,VWS V14.01,2013-12-07 02:01:00,
2013-12-06 21:31:00,25.3,19.1,30.41,NNW,328,8.0,13.0,77,0.00,,---,0.00,VWS V14.01,2013-12-07 02:31:00,
2013-12-06 22:01:00,24.9,19.0,30.42,NW,315,12.0,13.0,78,0.00,,---,0.00,VWS V14.01,2013-12-07 03:01:00,
2013-12-06 22:31:00,24.6,17.8,30.43,NNE,32,4.0,13.0,75,0.00,,---,0.00,VWS V14.01,2013-12-07 03:31:00,
2013-12-06 23:01:00,24.7,18.2,30.44,NW,323,8.0,13.0,76,0.00,,---,0.00,VWS V14.01,2013-12-07 04:01:00,
2013-12-06 23:31:00,24.4,17.9,30.45,NNW,328,7.0,11.0,76,0.00,,---,0.00,VWS V14.01,2013-12-07 04:31:00,